DRK200 VIDP-VQPR
Flight info
| Callsign | DRK200 |
|---|---|
| Flight time | 1h 45m |
| Altitude | 35000 |
| Route | ALI6H ALI DCT KTM B345 TUMLI G348 SUBSU |
| Aircraft | A320/M-SDE3FGHIRWY/LB1 |
Departure
| Time | 2025-09-06 06:06 |
|---|---|
| Airport | Indira Gandhi International Airport (VIDP) |
Arrival
| Time | 2025-09-06 07:51 |
|---|---|
| Airport | Paro International Airport (VQPR) |
| Time | Latitude | Longitude | Altitude | Speed | Heading |
|---|---|---|---|---|---|
| 2025-09-06 04:54 | 28.56054 | 77.08294 | 750 ft | 0 kts | 240° |
| 2025-09-06 05:34 | 28.56055 | 77.08297 | 750 ft | 2 kts | 240° |
| 2025-09-06 05:35 | 28.56069 | 77.08331 | 748 ft | 2 kts | 253° |
| 2025-09-06 05:35 | 28.56075 | 77.08368 | 748 ft | 2 kts | 278° |
| 2025-09-06 05:36 | 28.56051 | 77.08410 | 746 ft | 1 kts | 329° |
| 2025-09-06 05:54 | 28.56142 | 77.08348 | 750 ft | 10 kts | 326° |
| 2025-09-06 05:55 | 28.56239 | 77.08283 | 748 ft | 7 kts | 330° |
| 2025-09-06 05:55 | 28.56309 | 77.08227 | 748 ft | 9 kts | 307° |
| 2025-09-06 05:56 | 28.56363 | 77.08023 | 750 ft | 11 kts | 283° |
| 2025-09-06 05:56 | 28.56254 | 77.07943 | 748 ft | 14 kts | 194° |
| 2025-09-06 05:56 | 28.56139 | 77.07910 | 750 ft | 18 kts | 194° |
| 2025-09-06 05:57 | 28.55875 | 77.07835 | 747 ft | 21 kts | 194° |
| 2025-09-06 05:57 | 28.55585 | 77.07750 | 750 ft | 23 kts | 194° |
| 2025-09-06 05:58 | 28.55177 | 77.07630 | 750 ft | 11 kts | 194° |
| 2025-09-06 05:59 | 28.55099 | 77.07587 | 749 ft | 2 kts | 229° |
| 2025-09-06 05:59 | 28.55102 | 77.07481 | 750 ft | 18 kts | 283° |
| 2025-09-06 06:00 | 28.55161 | 77.07240 | 748 ft | 14 kts | 285° |
| 2025-09-06 06:00 | 28.55185 | 77.07136 | 749 ft | 13 kts | 284° |
| 2025-09-06 06:00 | 28.55177 | 77.06973 | 749 ft | 9 kts | 208° |
| 2025-09-06 06:01 | 28.55005 | 77.06928 | 747 ft | 17 kts | 193° |
| 2025-09-06 06:01 | 28.54769 | 77.06866 | 749 ft | 13 kts | 193° |
| 2025-09-06 06:02 | 28.54647 | 77.06891 | 749 ft | 0 kts | 104° |
| 2025-09-06 06:05 | 28.54179 | 77.09101 | 752 ft | 172 kts | 103° |
| 2025-09-06 06:05 | 28.53887 | 77.10450 | 1338 ft | 175 kts | 105° |
| 2025-09-06 06:05 | 28.52734 | 77.12951 | 2266 ft | 206 kts | 151° |
| 2025-09-06 06:06 | 28.47840 | 77.13583 | 3572 ft | 258 kts | 173° |
| 2025-09-06 06:07 | 28.44211 | 77.13875 | 5187 ft | 264 kts | 173° |
| 2025-09-06 06:07 | 28.40508 | 77.14198 | 6634 ft | 272 kts | 172° |
| 2025-09-06 06:07 | 28.38615 | 77.14368 | 6786 ft | 272 kts | 172° |
| 2025-09-06 06:08 | 28.34875 | 77.14702 | 6839 ft | 270 kts | 172° |
| 2025-09-06 06:08 | 28.31135 | 77.15126 | 7605 ft | 270 kts | 162° |
| 2025-09-06 06:09 | 28.28082 | 77.17496 | 9033 ft | 273 kts | 125° |
| 2025-09-06 06:09 | 28.26377 | 77.21427 | 10125 ft | 290 kts | 116° |
| 2025-09-06 06:10 | 28.23575 | 77.28215 | 11018 ft | 334 kts | 116° |
| 2025-09-06 06:11 | 28.21568 | 77.33046 | 12177 ft | 341 kts | 116° |
| 2025-09-06 06:11 | 28.20563 | 77.35463 | 12744 ft | 345 kts | 116° |
| 2025-09-06 06:12 | 28.17351 | 77.42922 | 14330 ft | 355 kts | 118° |
| 2025-09-06 06:12 | 28.16201 | 77.45425 | 14825 ft | 358 kts | 118° |
| 2025-09-06 06:12 | 28.13871 | 77.50464 | 15801 ft | 364 kts | 118° |
| 2025-09-06 06:13 | 28.11529 | 77.55569 | 16745 ft | 370 kts | 118° |
| 2025-09-06 06:13 | 28.09138 | 77.60801 | 17687 ft | 376 kts | 118° |
| 2025-09-06 06:14 | 28.05492 | 77.68797 | 18939 ft | 385 kts | 118° |
| 2025-09-06 06:15 | 28.03028 | 77.74181 | 19730 ft | 390 kts | 118° |
| 2025-09-06 06:15 | 28.01772 | 77.76915 | 20136 ft | 392 kts | 118° |
| 2025-09-06 06:15 | 27.99244 | 77.82421 | 20942 ft | 397 kts | 118° |
| 2025-09-06 06:16 | 27.96681 | 77.88010 | 21728 ft | 402 kts | 118° |
| 2025-09-06 06:16 | 27.94078 | 77.93669 | 22480 ft | 407 kts | 118° |
| 2025-09-06 06:17 | 27.91461 | 77.99351 | 23191 ft | 412 kts | 119° |
| 2025-09-06 06:17 | 27.88793 | 78.05122 | 23779 ft | 416 kts | 119° |
| 2025-09-06 06:18 | 27.84747 | 78.13866 | 24625 ft | 421 kts | 118° |
| 2025-09-06 06:19 | 27.83032 | 78.20226 | 25145 ft | 429 kts | 97° |
| 2025-09-06 06:21 | 27.83007 | 78.46548 | 27000 ft | 444 kts | 92° |
| 2025-09-06 06:23 | 27.83039 | 78.74861 | 28698 ft | 456 kts | 92° |
| 2025-09-06 06:25 | 27.83012 | 79.03893 | 30046 ft | 468 kts | 92° |
| 2025-09-06 06:27 | 27.82926 | 79.33337 | 31414 ft | 467 kts | 91° |
| 2025-09-06 06:29 | 27.82766 | 79.62502 | 33120 ft | 461 kts | 91° |
| 2025-09-06 06:31 | 27.82557 | 79.91258 | 34728 ft | 455 kts | 91° |
| 2025-09-06 06:32 | 27.82325 | 80.16080 | 34802 ft | 451 kts | 91° |
| 2025-09-06 06:35 | 27.81968 | 80.47895 | 34805 ft | 449 kts | 91° |
| 2025-09-06 06:36 | 27.81642 | 80.72608 | 34806 ft | 449 kts | 92° |
| 2025-09-06 06:39 | 27.81153 | 81.04323 | 34823 ft | 449 kts | 92° |
| 2025-09-06 06:40 | 27.80724 | 81.28991 | 34820 ft | 448 kts | 92° |
| 2025-09-06 06:43 | 27.80116 | 81.60598 | 34821 ft | 447 kts | 92° |
| 2025-09-06 06:44 | 27.79583 | 81.85167 | 34817 ft | 447 kts | 92° |
| 2025-09-06 06:47 | 27.78844 | 82.16709 | 34826 ft | 447 kts | 92° |
| 2025-09-06 06:48 | 27.78217 | 82.41228 | 34836 ft | 446 kts | 92° |
| 2025-09-06 06:50 | 27.77459 | 82.69177 | 34849 ft | 445 kts | 92° |
| 2025-09-06 06:52 | 27.76635 | 82.97120 | 34854 ft | 444 kts | 92° |
| 2025-09-06 06:54 | 27.75760 | 83.25015 | 34858 ft | 445 kts | 92° |
| 2025-09-06 06:56 | 27.74822 | 83.52872 | 34865 ft | 444 kts | 92° |
| 2025-09-06 06:58 | 27.73834 | 83.80713 | 34882 ft | 444 kts | 93° |
| 2025-09-06 07:00 | 27.72801 | 84.08593 | 34896 ft | 444 kts | 93° |
| 2025-09-06 07:03 | 27.71553 | 84.39926 | 34927 ft | 444 kts | 93° |
| 2025-09-06 07:04 | 27.70543 | 84.64256 | 34956 ft | 443 kts | 93° |
| 2025-09-06 07:07 | 27.69225 | 84.94573 | 34980 ft | 452 kts | 94° |
| 2025-09-06 07:09 | 27.67918 | 85.23021 | 35076 ft | 455 kts | 94° |
| 2025-09-06 07:11 | 27.64259 | 85.51179 | 35089 ft | 456 kts | 102° |
| 2025-09-06 07:12 | 27.59594 | 85.75607 | 35090 ft | 456 kts | 102° |
| 2025-09-06 07:15 | 27.53526 | 86.07035 | 35110 ft | 456 kts | 103° |
| 2025-09-06 07:16 | 27.48759 | 86.31430 | 35137 ft | 456 kts | 102° |
| 2025-09-06 07:19 | 27.42735 | 86.62809 | 35150 ft | 456 kts | 102° |
| 2025-09-06 07:20 | 27.37989 | 86.87210 | 35137 ft | 456 kts | 103° |
| 2025-09-06 07:23 | 27.31701 | 87.18467 | 35094 ft | 455 kts | 110° |
| 2025-09-06 07:25 | 27.18758 | 87.42896 | 35044 ft | 454 kts | 121° |
| 2025-09-06 07:27 | 27.05420 | 87.66952 | 35029 ft | 454 kts | 121° |
| 2025-09-06 07:28 | 26.93702 | 87.88017 | 35027 ft | 455 kts | 122° |
| 2025-09-06 07:30 | 26.80292 | 88.11983 | 35005 ft | 454 kts | 122° |
| 2025-09-06 07:32 | 26.71955 | 88.37393 | 34740 ft | 453 kts | 74° |
| 2025-09-06 07:34 | 26.85225 | 88.62540 | 26282 ft | 472 kts | 59° |
| 2025-09-06 07:35 | 26.88612 | 88.68761 | 24767 ft | 464 kts | 59° |
| 2025-09-06 07:36 | 26.93626 | 88.77969 | 22437 ft | 456 kts | 59° |
| 2025-09-06 07:36 | 26.95228 | 88.80916 | 21769 ft | 444 kts | 59° |
| 2025-09-06 07:37 | 27.00283 | 88.89509 | 19885 ft | 434 kts | 44° |
| 2025-09-06 07:37 | 27.02595 | 88.91655 | 19394 ft | 429 kts | 35° |
| 2025-09-06 07:37 | 27.07710 | 88.94985 | 18419 ft | 422 kts | 27° |
| 2025-09-06 07:38 | 27.10326 | 88.96502 | 17913 ft | 417 kts | 27° |
| 2025-09-06 07:38 | 27.17738 | 89.01278 | 16427 ft | 405 kts | 32° |
| 2025-09-06 07:39 | 27.22451 | 89.04645 | 15545 ft | 396 kts | 33° |
| 2025-09-06 07:39 | 27.27033 | 89.07933 | 14643 ft | 389 kts | 32° |
| 2025-09-06 07:40 | 27.31577 | 89.11043 | 14298 ft | 371 kts | 25° |
| 2025-09-06 07:40 | 27.36070 | 89.13875 | 15138 ft | 375 kts | 43° |
| 2025-09-06 07:41 | 27.39399 | 89.18490 | 14958 ft | 380 kts | 46° |
| 2025-09-06 07:42 | 27.46397 | 89.21567 | 14688 ft | 348 kts | 9° |
| 2025-09-06 07:42 | 27.50686 | 89.22854 | 14824 ft | 290 kts | 30° |
| 2025-09-06 07:43 | 27.53763 | 89.25376 | 14645 ft | 260 kts | 38° |
| 2025-09-06 07:43 | 27.56608 | 89.27363 | 13993 ft | 222 kts | 41° |
| 2025-09-06 07:44 | 27.58403 | 89.29995 | 13138 ft | 209 kts | 70° |
| 2025-09-06 07:44 | 27.57353 | 89.32379 | 12330 ft | 197 kts | 166° |
| 2025-09-06 07:45 | 27.55168 | 89.30803 | 10920 ft | 195 kts | 253° |
| 2025-09-06 07:45 | 27.56268 | 89.28887 | 11378 ft | 178 kts | 352° |
| 2025-09-06 07:45 | 27.57483 | 89.29288 | 10643 ft | 190 kts | 48° |
| 2025-09-06 07:46 | 27.55478 | 89.31391 | 9532 ft | 196 kts | 168° |
| 2025-09-06 07:46 | 27.54213 | 89.31759 | 9266 ft | 179 kts | 165° |
| 2025-09-06 07:47 | 27.50883 | 89.32721 | 9038 ft | 167 kts | 165° |
| 2025-09-06 07:48 | 27.48849 | 89.33673 | 8830 ft | 151 kts | 152° |
| 2025-09-06 07:48 | 27.47127 | 89.35027 | 8739 ft | 156 kts | 141° |
| 2025-09-06 07:49 | 27.45642 | 89.36890 | 8665 ft | 164 kts | 130° |
| 2025-09-06 07:49 | 27.44319 | 89.38854 | 8235 ft | 155 kts | 127° |
| 2025-09-06 07:49 | 27.43663 | 89.39805 | 8109 ft | 152 kts | 130° |
| 2025-09-06 07:50 | 27.41051 | 89.42003 | 7381 ft | 164 kts | 148° |
| 2025-09-06 07:51 | 27.39837 | 89.42781 | 7327 ft | 49 kts | 150° |
| 2025-09-06 07:51 | 27.39471 | 89.43012 | 7315 ft | 14 kts | 163° |
| 2025-09-06 07:52 | 27.39445 | 89.42927 | 7317 ft | 4 kts | 325° |
| 2025-09-06 07:52 | 27.39474 | 89.42907 | 7318 ft | 1 kts | 329° |
| 2025-09-06 07:52 | 27.39476 | 89.42906 | 7318 ft | 1 kts | 329° |
| 2025-09-06 07:53 | 27.39582 | 89.42839 | 7321 ft | 15 kts | 331° |
| 2025-09-06 07:53 | 27.39751 | 89.42732 | 7326 ft | 13 kts | 330° |
| 2025-09-06 07:54 | 27.39950 | 89.42605 | 7332 ft | 10 kts | 330° |
| 2025-09-06 07:55 | 27.40060 | 89.42535 | 7336 ft | 10 kts | 330° |
| 2025-09-06 07:55 | 27.40202 | 89.42444 | 7340 ft | 18 kts | 329° |
| 2025-09-06 07:56 | 27.40440 | 89.42293 | 7349 ft | 18 kts | 330° |
| 2025-09-06 07:56 | 27.40541 | 89.42226 | 7352 ft | 14 kts | 329° |
| 2025-09-06 07:56 | 27.40582 | 89.42176 | 7354 ft | 1 kts | 255° |
| 2025-09-06 07:57 | 27.40567 | 89.42145 | 7354 ft | 1 kts | 240° |